createdAt,value
2018-09-19T00:00:02.441Z,26.35
2018-09-19T00:02:31.721Z,28.07
2018-09-19T00:05:00.174Z,24.30
2018-09-19T00:07:28.564Z,23.62
2018-09-19T00:09:57.137Z,27.32
2018-09-19T00:12:25.849Z,25.15
2018-09-19T00:14:54.453Z,25.43
2018-09-19T00:17:23.140Z,23.70
2018-09-19T00:19:52.183Z,23.75
2018-09-19T00:22:21.206Z,32.85
2018-09-19T00:24:49.792Z,24.05
2018-09-19T00:27:18.184Z,24.67
2018-09-19T00:29:46.682Z,27.70
2018-09-19T00:32:15.074Z,30.60
2018-09-19T00:34:44.125Z,24.60
2018-09-19T00:37:12.607Z,29.15
2018-09-19T00:39:41.206Z,26.23
2018-09-19T00:42:09.603Z,24.23
2018-09-19T00:44:38.601Z,23.55
2018-09-19T00:47:07.096Z,24.05
2018-09-19T00:49:35.508Z,23.10
2018-09-19T00:52:04.014Z,24.60
2018-09-19T00:54:32.539Z,23.60
2018-09-19T00:57:01.197Z,25.80
2018-09-19T00:59:29.692Z,23.62
2018-09-19T01:01:58.156Z,21.52
2018-09-19T01:04:26.637Z,22.15
2018-09-19T01:06:55.645Z,26.20
2018-09-19T01:09:24.303Z,21.70
2018-09-19T01:11:53.593Z,23.42
2018-09-19T01:14:22.275Z,21.33
2018-09-19T01:16:50.702Z,23.70
2018-09-19T01:19:19.135Z,21.35
2018-09-19T01:21:47.581Z,21.93
2018-09-19T01:24:15.976Z,26.65
2018-09-19T01:26:44.543Z,22.52
2018-09-19T01:29:13.770Z,19.45
2018-09-19T01:31:42.316Z,22.32
2018-09-19T01:34:11.317Z,19.37
2018-09-19T01:36:39.943Z,23.22
2018-09-19T01:39:09.053Z,23.65
2018-09-19T01:41:37.627Z,19.60
2018-09-19T01:44:06.936Z,24.20
2018-09-19T01:46:35.400Z,21.33
2018-09-19T01:49:04.336Z,20.97
2018-09-19T01:51:33.089Z,18.67
2018-09-19T01:54:02.085Z,19.55
2018-09-19T01:56:30.507Z,24.20
2018-09-19T01:58:58.895Z,19.62
2018-09-19T02:01:27.286Z,20.40
2018-09-19T02:03:55.689Z,20.80
2018-09-19T02:06:24.819Z,20.30
2018-09-19T02:08:53.246Z,22.52
2018-09-19T02:11:21.871Z,19.55
2018-09-19T02:13:50.402Z,22.62
2018-09-19T02:16:19.061Z,16.97
2018-09-19T02:18:47.652Z,19.20
2018-09-19T02:21:16.776Z,18.10
2018-09-19T02:23:45.942Z,19.27
2018-09-19T02:26:14.325Z,16.23
2018-09-19T02:28:42.805Z,16.30
2018-09-19T02:31:11.724Z,15.72
2018-09-19T02:33:40.469Z,18.60
2018-09-19T02:36:08.993Z,18.62
2018-09-19T02:38:37.553Z,15.58
2018-09-19T02:41:06.408Z,17.82
2018-09-19T02:43:34.810Z,17.85
2018-09-19T02:46:03.374Z,17.60
2018-09-19T02:48:32.084Z,16.62
2018-09-19T02:51:00.468Z,16.75
2018-09-19T02:53:28.880Z,16.27
2018-09-19T02:55:58.037Z,17.10
2018-09-19T02:58:26.529Z,16.32
2018-09-19T03:00:55.494Z,15.65
2018-09-19T03:03:25.141Z,17.30
2018-09-19T03:05:53.757Z,16.93
2018-09-19T03:08:22.325Z,12.13
2018-09-19T03:10:50.723Z,16.70
2018-09-19T03:13:19.250Z,13.32
2018-09-19T03:15:47.673Z,11.50
2018-09-19T03:18:16.196Z,10.23
2018-09-19T03:20:44.825Z,15.40
2018-09-19T03:23:13.373Z,12.75
2018-09-19T03:25:41.881Z,13.10
2018-09-19T03:28:10.561Z,10.48
2018-09-19T03:30:39.445Z,12.78
2018-09-19T03:33:08.008Z,13.43
2018-09-19T03:35:36.703Z,12.60
2018-09-19T03:38:05.863Z,12.63
2018-09-19T03:40:34.899Z,9.85
2018-09-19T03:43:03.308Z,10.88
2018-09-19T03:45:31.833Z,11.00
2018-09-19T03:48:00.318Z,7.70
2018-09-19T03:50:29.768Z,12.88
2018-09-19T03:52:58.420Z,12.18
2018-09-19T03:55:26.993Z,10.50
2018-09-19T03:57:55.502Z,10.45
2018-09-19T04:00:23.926Z,11.05
2018-09-19T04:02:52.378Z,12.13
2018-09-19T04:05:20.966Z,10.35
2018-09-19T04:07:49.360Z,11.22
2018-09-19T04:10:17.769Z,8.25
2018-09-19T04:12:46.164Z,21.37
2018-09-19T04:15:15.291Z,12.73
2018-09-19T04:17:43.958Z,10.25
2018-09-19T04:20:12.432Z,12.93
2018-09-19T04:22:40.838Z,8.95
2018-09-19T04:25:09.758Z,8.58
2018-09-19T04:27:38.137Z,10.82
2018-09-19T04:30:06.813Z,11.35
2018-09-19T04:32:35.810Z,15.32
2018-09-19T04:35:04.463Z,12.15
2018-09-19T04:37:33.587Z,11.60
2018-09-19T04:40:03.055Z,14.90
2018-09-19T04:42:31.765Z,9.30
2018-09-19T04:45:00.524Z,10.28
2018-09-19T04:47:29.507Z,14.40
2018-09-19T04:49:58.091Z,17.02
2018-09-19T04:52:26.716Z,13.50
2018-09-19T04:54:55.121Z,9.50
2018-09-19T04:57:23.653Z,7.58
2018-09-19T04:59:52.212Z,9.63
2018-09-19T05:02:20.851Z,11.40
2018-09-19T05:04:49.438Z,10.55
2018-09-19T05:07:18.785Z,11.90
2018-09-19T05:09:47.258Z,16.48
2018-09-19T05:12:15.963Z,10.45
2018-09-19T05:14:44.514Z,8.48
2018-09-19T05:17:13.327Z,10.85
2018-09-19T05:19:42.530Z,10.78
2018-09-19T05:22:11.092Z,10.35
2018-09-19T05:24:39.532Z,10.35
2018-09-19T05:27:08.124Z,9.20
2018-09-19T05:29:36.704Z,11.40
2018-09-19T05:32:05.781Z,12.35
2018-09-19T05:34:34.244Z,8.25
2018-09-19T05:37:02.691Z,9.75
2018-09-19T05:39:32.032Z,10.15
2018-09-19T05:42:00.522Z,9.75
2018-09-19T05:44:29.753Z,9.90
2018-09-19T05:46:58.996Z,11.18
2018-09-19T05:49:28.024Z,11.03
2018-09-19T05:51:56.612Z,9.33
2018-09-19T05:54:25.618Z,9.33
2018-09-19T05:56:53.979Z,11.38
2018-09-19T05:59:23.179Z,9.55
2018-09-19T06:01:51.691Z,14.43
2018-09-19T06:04:20.357Z,9.93
2018-09-19T06:06:49.021Z,11.15
2018-09-19T06:09:17.614Z,15.72
2018-09-19T06:11:46.165Z,10.63
2018-09-19T06:16:46.993Z,9.98
2018-09-19T06:19:16.298Z,11.30
2018-09-19T06:21:44.700Z,9.00
2018-09-19T06:24:13.142Z,8.33
2018-09-19T06:26:41.545Z,10.25
2018-09-19T06:29:09.949Z,9.73
2018-09-19T06:31:38.448Z,11.48
2018-09-19T06:34:06.857Z,9.25
2018-09-19T06:36:35.289Z,11.57
2018-09-19T06:39:04.735Z,11.03
2018-09-19T06:41:33.884Z,10.98
2018-09-19T06:44:02.316Z,10.23
2018-09-19T06:46:30.885Z,12.82
2018-09-19T06:48:59.326Z,8.63
2018-09-19T06:51:28.044Z,9.90
2018-09-19T06:53:56.741Z,11.18
2018-09-19T06:56:25.160Z,7.78
2018-09-19T06:58:53.721Z,7.12
2018-09-19T07:01:23.123Z,7.97
2018-09-19T07:03:51.915Z,11.15
2018-09-19T07:06:20.714Z,15.00
2018-09-19T07:08:50.215Z,11.30
2018-09-19T07:11:19.966Z,11.78
2018-09-19T07:13:48.396Z,9.13
2018-09-19T07:16:16.890Z,7.80
2018-09-19T07:18:45.315Z,8.68
2018-09-19T07:21:14.473Z,11.53
2018-09-19T07:23:43.180Z,9.48
2018-09-19T07:26:11.643Z,8.15
2018-09-19T07:28:40.272Z,8.90
2018-09-19T07:31:08.722Z,8.33
2018-09-19T07:33:37.785Z,7.00
2018-09-19T07:36:06.834Z,6.28
2018-09-19T07:38:35.440Z,7.08
2018-09-19T07:41:04.156Z,5.17
2018-09-19T07:43:32.631Z,7.28
2018-09-19T07:46:01.135Z,7.78
2018-09-19T07:48:29.292Z,6.75
2018-09-19T07:50:57.757Z,6.83
2018-09-19T07:53:30.588Z,6.60
2018-09-19T07:55:58.989Z,6.85
2018-09-19T07:58:27.722Z,6.90
2018-09-19T08:00:56.616Z,7.95
2018-09-19T08:03:24.940Z,8.03
2018-09-19T08:05:53.401Z,5.67
2018-09-19T08:08:22.352Z,9.13
2018-09-19T08:10:51.152Z,5.35
2018-09-19T08:13:19.728Z,6.60
2018-09-19T08:15:48.806Z,6.97
2018-09-19T08:18:17.410Z,9.20
2018-09-19T08:20:45.987Z,9.38
2018-09-19T08:23:14.420Z,6.03
2018-09-19T08:25:43.616Z,6.87
2018-09-19T08:28:12.025Z,4.78
2018-09-19T08:30:40.513Z,4.58
2018-09-19T08:33:09.236Z,5.00
2018-09-19T08:35:37.690Z,6.22
2018-09-19T08:38:06.112Z,8.40
2018-09-19T08:40:34.641Z,6.67
2018-09-19T08:43:03.057Z,5.37
2018-09-19T08:45:31.460Z,10.82
2018-09-19T08:48:00.569Z,6.22
2018-09-19T08:50:29.905Z,5.72
2018-09-19T08:52:58.584Z,4.85
2018-09-19T08:55:27.868Z,6.47
2018-09-19T08:57:56.749Z,4.72
2018-09-19T09:00:25.310Z,8.50
2018-09-19T09:02:53.828Z,5.75
2018-09-19T09:05:23.009Z,5.45
2018-09-19T09:07:51.388Z,10.63
2018-09-19T09:10:20.130Z,4.40
2018-09-19T09:12:49.253Z,5.17
2018-09-19T09:15:17.784Z,5.83
2018-09-19T09:17:46.199Z,6.67
2018-09-19T09:20:14.779Z,6.45
2018-09-19T09:22:43.441Z,5.78
2018-09-19T09:25:12.129Z,5.05
2018-09-19T09:27:40.841Z,6.20
2018-09-19T09:30:09.514Z,7.03
2018-09-19T09:32:38.072Z,5.00
2018-09-19T09:35:06.552Z,6.33
2018-09-19T09:37:35.419Z,7.40
2018-09-19T09:40:04.062Z,8.73
2018-09-19T09:42:32.561Z,9.20
2018-09-19T09:45:01.221Z,7.45
2018-09-19T09:47:29.513Z,6.53
2018-09-19T09:49:57.973Z,6.03
2018-09-19T09:52:27.576Z,6.58
2018-09-19T09:54:56.026Z,5.50
2018-09-19T09:57:24.535Z,11.40
2018-09-19T09:59:52.942Z,5.87
2018-09-19T10:02:21.359Z,5.70
2018-09-19T10:04:50.413Z,6.12
2018-09-19T10:07:19.589Z,6.95
2018-09-19T10:09:48.389Z,6.42
2018-09-19T10:12:16.925Z,5.65
2018-09-19T10:14:45.435Z,8.78
2018-09-19T10:17:13.993Z,7.15
2018-09-19T10:19:42.745Z,6.15
2018-09-19T10:22:11.221Z,6.20
2018-09-19T10:24:39.733Z,4.85
2018-09-19T10:27:08.804Z,4.15
2018-09-19T10:29:37.403Z,4.28
2018-09-19T10:32:06.052Z,7.33
2018-09-19T10:34:34.517Z,5.12
2018-09-19T10:37:02.997Z,6.62
2018-09-19T10:39:31.540Z,7.40
2018-09-19T10:42:00.020Z,6.15
2018-09-19T10:44:28.674Z,7.62
2018-09-19T10:46:57.237Z,10.63
2018-09-19T10:49:25.781Z,5.80
2018-09-19T10:51:54.356Z,7.50
2018-09-19T10:54:22.805Z,6.78
2018-09-19T10:56:51.358Z,7.97
2018-09-19T10:59:19.748Z,7.45
2018-09-19T11:01:48.131Z,8.23
2018-09-19T11:04:16.848Z,8.60
2018-09-19T11:06:45.316Z,6.10
2018-09-19T11:09:13.902Z,10.98
2018-09-19T11:11:42.417Z,7.62
2018-09-19T11:14:10.879Z,5.83
2018-09-19T11:16:39.309Z,8.30
2018-09-19T11:19:07.737Z,5.70
2018-09-19T11:21:36.116Z,7.50
2018-09-19T11:24:04.596Z,6.97
2018-09-19T11:26:33.222Z,7.65
2018-09-19T11:29:01.965Z,7.55
2018-09-19T11:31:30.505Z,8.63
2018-09-19T11:33:58.978Z,5.70
2018-09-19T11:36:27.475Z,7.80
2018-09-19T11:38:56.304Z,6.08
2018-09-19T11:41:24.869Z,9.28
2018-09-19T11:43:53.273Z,8.45
2018-09-19T11:46:21.681Z,8.68
2018-09-19T11:48:50.325Z,5.80
2018-09-19T11:51:18.841Z,5.35
2018-09-19T11:53:47.378Z,9.18
2018-09-19T11:56:16.065Z,10.68
2018-09-19T11:58:44.684Z,5.20
2018-09-19T12:01:13.140Z,7.40
2018-09-19T12:03:41.674Z,4.62
2018-09-19T12:06:10.189Z,6.33
2018-09-19T12:08:39.229Z,4.72
2018-09-19T12:11:07.669Z,7.12
2018-09-19T12:13:36.435Z,8.45
2018-09-19T12:16:04.943Z,5.28
2018-09-19T12:18:33.499Z,4.47
2018-09-19T12:21:02.030Z,5.35
2018-09-19T12:23:31.126Z,7.65
2018-09-19T12:26:00.552Z,4.35
2018-09-19T12:28:29.081Z,7.35
2018-09-19T12:30:57.611Z,5.92
2018-09-19T12:33:26.200Z,6.83
2018-09-19T12:35:54.625Z,7.00
2018-09-19T12:38:23.138Z,5.75
2018-09-19T12:40:51.293Z,9.68
2018-09-19T12:43:19.808Z,5.42
2018-09-19T12:45:49.150Z,5.65
2018-09-19T12:48:17.685Z,6.65
2018-09-19T12:50:46.131Z,7.05
2018-09-19T12:53:14.820Z,4.20
2018-09-19T12:55:43.451Z,6.67
2018-09-19T12:58:11.868Z,4.72
2018-09-19T13:00:40.532Z,4.25
2018-09-19T13:03:09.239Z,6.67
2018-09-19T13:05:37.761Z,6.30
2018-09-19T13:08:06.644Z,7.55
2018-09-19T13:10:35.235Z,7.00
2018-09-19T13:13:03.657Z,8.08
2018-09-19T13:15:32.220Z,9.03
2018-09-19T13:18:01.582Z,6.45
2018-09-19T13:20:31.048Z,8.43
2018-09-19T13:22:59.564Z,12.35
2018-09-19T13:25:28.165Z,5.65
2018-09-19T13:27:56.577Z,7.17
2018-09-19T13:30:25.164Z,7.28
2018-09-19T13:32:53.636Z,9.73
2018-09-19T13:35:22.317Z,5.85
2018-09-19T13:37:50.864Z,5.28
2018-09-19T13:40:19.550Z,7.62
2018-09-19T13:42:48.156Z,4.67
2018-09-19T13:45:17.581Z,7.08
2018-09-19T13:47:46.561Z,9.08
2018-09-19T13:50:53.717Z,10.25
2018-09-19T13:53:23.197Z,7.80
2018-09-19T13:55:52.461Z,5.80
2018-09-19T13:58:21.109Z,7.03
2018-09-19T14:00:49.943Z,6.78
2018-09-19T14:03:18.380Z,6.95
2018-09-19T14:05:47.602Z,5.17
2018-09-19T14:08:17.414Z,5.33
2018-09-19T14:10:45.842Z,7.17
2018-09-19T14:13:14.870Z,6.92
2018-09-19T14:15:44.991Z,9.43
2018-09-19T14:18:13.565Z,4.12
2018-09-19T14:20:43.124Z,5.22
2018-09-19T14:23:11.569Z,5.97
2018-09-19T14:25:40.261Z,7.40
2018-09-19T14:28:08.771Z,6.67
2018-09-19T14:30:37.194Z,5.35
2018-09-19T14:33:05.732Z,4.05
2018-09-19T14:35:34.180Z,6.05
2018-09-19T14:38:02.641Z,4.92
2018-09-19T14:40:31.251Z,5.22
2018-09-19T14:42:59.686Z,5.10
2018-09-19T14:45:28.714Z,5.40
2018-09-19T14:47:57.312Z,5.33
2018-09-19T14:50:26.291Z,5.65
2018-09-19T14:52:54.822Z,5.97
2018-09-19T14:55:22.979Z,4.00
2018-09-19T14:57:51.780Z,5.50
2018-09-19T15:00:20.341Z,5.37
2018-09-19T15:02:48.830Z,7.37
2018-09-19T15:05:17.273Z,7.08
2018-09-19T15:07:45.832Z,4.62
2018-09-19T15:10:14.442Z,3.42
2018-09-19T15:12:43.533Z,5.08
2018-09-19T15:15:12.169Z,5.35
2018-09-19T15:17:40.669Z,6.85
2018-09-19T15:20:09.313Z,6.08
2018-09-19T15:22:37.751Z,5.30
2018-09-19T15:25:06.264Z,6.53
2018-09-19T15:27:34.745Z,6.80
2018-09-19T15:30:03.176Z,5.87
2018-09-19T15:32:31.741Z,7.85
2018-09-19T15:35:00.298Z,9.33
2018-09-19T15:37:28.819Z,4.83
2018-09-19T15:39:57.344Z,6.35
2018-09-19T15:42:25.872Z,4.20
2018-09-19T15:44:54.761Z,5.85
2018-09-19T15:47:23.347Z,5.95
2018-09-19T15:49:51.937Z,5.42
2018-09-19T15:52:20.777Z,4.03
2018-09-19T15:54:49.177Z,5.10
2018-09-19T15:57:18.402Z,6.95
2018-09-19T15:59:47.397Z,4.78
2018-09-19T16:02:15.985Z,3.83
2018-09-19T16:04:44.421Z,6.37
2018-09-19T16:07:13.250Z,6.55
2018-09-19T16:09:41.779Z,3.98
2018-09-19T16:12:10.353Z,8.70
2018-09-19T16:14:39.148Z,6.62
2018-09-19T16:17:07.916Z,4.55
2018-09-19T16:19:37.194Z,4.33
2018-09-19T16:22:05.918Z,5.42
2018-09-19T16:24:34.770Z,7.62
2018-09-19T16:27:03.332Z,6.75
2018-09-19T16:29:31.791Z,4.80
2018-09-19T16:32:00.220Z,5.47
2018-09-19T16:34:29.334Z,6.10
2018-09-19T16:36:57.782Z,4.97
2018-09-19T16:39:26.226Z,4.37
2018-09-19T16:41:54.832Z,6.10
2018-09-19T16:44:23.292Z,5.70
2018-09-19T16:46:51.952Z,3.85
2018-09-19T16:49:20.534Z,3.77
2018-09-19T16:51:49.706Z,7.58
2018-09-19T16:54:18.285Z,5.00
2018-09-19T16:56:47.185Z,5.25
2018-09-19T16:59:15.591Z,9.60
2018-09-19T17:01:44.114Z,4.50
2018-09-19T17:04:12.703Z,4.67
2018-09-19T17:06:41.288Z,4.80
2018-09-19T17:09:10.018Z,4.12
2018-09-19T17:11:38.964Z,2.92
2018-09-19T17:14:07.578Z,5.95
2018-09-19T17:16:36.033Z,4.55
2018-09-19T17:19:04.546Z,4.40
2018-09-19T17:21:33.908Z,7.03
2018-09-19T17:24:03.018Z,4.83
2018-09-19T17:26:31.609Z,5.00
2018-09-19T17:29:00.287Z,5.17
2018-09-19T17:31:28.809Z,4.45
2018-09-19T17:33:57.262Z,7.53
2018-09-19T17:36:25.862Z,16.15
2018-09-19T17:38:54.421Z,5.00
2018-09-19T17:41:23.421Z,5.55
2018-09-19T17:43:51.860Z,5.58
2018-09-19T17:46:20.427Z,5.35
2018-09-19T17:48:49.689Z,5.70
2018-09-19T17:51:18.413Z,5.70
2018-09-19T17:53:46.985Z,5.55
2018-09-19T17:56:15.544Z,5.10
2018-09-19T17:58:44.089Z,6.12
2018-09-19T18:01:13.346Z,6.00
2018-09-19T18:03:42.981Z,5.22
2018-09-19T18:06:11.794Z,6.25
2018-09-19T18:08:40.320Z,6.00
2018-09-19T18:11:08.797Z,4.72
2018-09-19T18:13:37.391Z,4.50
2018-09-19T18:16:06.048Z,5.60
2018-09-19T18:18:34.453Z,4.95
2018-09-19T18:21:03.358Z,6.90
2018-09-19T18:23:32.106Z,6.12
2018-09-19T18:26:00.536Z,5.97
2018-09-19T18:28:29.160Z,9.38
2018-09-19T18:30:57.897Z,6.47
2018-09-19T18:33:27.132Z,4.50
2018-09-19T18:35:56.284Z,5.53
2018-09-19T18:38:25.242Z,4.72
2018-09-19T18:40:54.629Z,7.83
2018-09-19T18:43:23.148Z,5.92
2018-09-19T18:45:51.700Z,5.05
2018-09-19T18:48:20.349Z,9.23
2018-09-19T18:50:48.907Z,4.72
2018-09-19T18:53:18.194Z,5.10
2018-09-19T18:55:46.737Z,7.97
2018-09-19T18:58:15.376Z,7.08
2018-09-19T19:00:44.177Z,8.00
2018-09-19T19:03:12.769Z,8.13
2018-09-19T19:05:41.813Z,4.85
2018-09-19T19:08:11.242Z,7.12
2018-09-19T19:10:39.863Z,5.87
2018-09-19T19:13:08.363Z,6.03
2018-09-19T19:15:37.769Z,7.37
2018-09-19T19:18:06.459Z,6.15
2018-09-19T19:20:35.721Z,12.82
2018-09-19T19:23:04.276Z,19.98
2018-09-19T19:25:33.793Z,10.48
2018-09-19T19:28:02.490Z,8.95
2018-09-19T19:30:31.892Z,7.60
2018-09-19T19:33:00.713Z,6.65
2018-09-19T19:35:29.331Z,5.58
2018-09-19T19:37:57.760Z,6.33
2018-09-19T19:40:26.434Z,5.58
2018-09-19T19:42:55.119Z,7.25
2018-09-19T19:45:23.673Z,5.62
2018-09-19T19:47:52.470Z,6.03
2018-09-19T19:50:21.083Z,6.92
2018-09-19T19:52:50.320Z,5.28
2018-09-19T19:55:18.864Z,8.45
2018-09-19T19:57:47.429Z,5.78
2018-09-19T20:00:15.892Z,7.30
2018-09-19T20:02:44.490Z,8.38
2018-09-19T20:05:13.408Z,14.15
2018-09-19T20:07:42.124Z,9.18
2018-09-19T20:10:11.504Z,7.62
2018-09-19T20:12:40.131Z,4.83
2018-09-19T20:15:08.639Z,5.85
2018-09-19T20:17:37.156Z,6.42
2018-09-19T20:20:05.960Z,7.95
2018-09-19T20:22:34.523Z,5.15
2018-09-19T20:25:03.048Z,8.20
2018-09-19T20:27:31.638Z,7.30
2018-09-19T20:30:00.341Z,7.20
2018-09-19T20:32:29.060Z,6.08
2018-09-19T20:34:57.870Z,7.28
2018-09-19T20:37:26.473Z,6.90
2018-09-19T20:39:55.224Z,7.03
2018-09-19T20:42:24.809Z,5.40
2018-09-19T20:44:54.189Z,4.72
2018-09-19T20:47:22.733Z,24.30
2018-09-19T20:49:51.189Z,11.57
2018-09-19T20:52:19.805Z,6.97
2018-09-19T20:54:48.488Z,6.08
2018-09-19T20:57:17.143Z,6.62
2018-09-19T20:59:45.796Z,8.15
2018-09-19T21:02:14.656Z,12.50
2018-09-19T21:04:43.590Z,5.53
2018-09-19T21:07:12.107Z,7.87
2018-09-19T21:09:40.831Z,7.42
2018-09-19T21:12:09.456Z,7.58
2018-09-19T21:14:38.715Z,14.10
2018-09-19T21:17:07.249Z,6.70
2018-09-19T21:19:35.935Z,9.23
2018-09-19T21:22:04.636Z,6.00
2018-09-19T21:24:33.550Z,7.60
2018-09-19T21:27:03.091Z,8.40
2018-09-19T21:29:31.643Z,7.22
2018-09-19T21:32:00.165Z,6.70
2018-09-19T21:34:28.733Z,6.65
2018-09-19T21:36:57.225Z,9.70
2018-09-19T21:39:25.781Z,7.22
2018-09-19T21:41:54.228Z,11.93
2018-09-19T21:44:22.870Z,9.58
2018-09-19T21:46:51.364Z,8.30
2018-09-19T21:49:19.792Z,6.45
2018-09-19T21:51:48.208Z,6.08
2018-09-19T21:54:16.616Z,6.95
2018-09-19T21:56:45.041Z,8.00
2018-09-19T21:59:13.458Z,8.90
2018-09-19T22:01:43.573Z,7.78
2018-09-19T22:04:12.768Z,8.28
2018-09-19T22:06:41.316Z,10.82
2018-09-19T22:09:11.820Z,5.72
2018-09-19T22:11:40.898Z,7.72
2018-09-19T22:14:09.703Z,10.95
2018-09-19T22:16:38.229Z,9.83
2018-09-19T22:19:06.765Z,7.78
2018-09-19T22:21:35.237Z,8.03
2018-09-19T22:24:03.633Z,9.13
2018-09-19T22:26:32.584Z,6.47
2018-09-19T22:29:01.187Z,7.70
2018-09-19T22:31:29.816Z,7.85
2018-09-19T22:33:58.332Z,7.62
2018-09-19T22:36:26.792Z,6.85
2018-09-19T22:38:55.221Z,6.65
2018-09-19T22:41:23.852Z,10.60
2018-09-19T22:43:52.412Z,8.10
2018-09-19T22:46:20.837Z,10.55
2018-09-19T22:48:49.317Z,8.08
2018-09-19T22:51:17.774Z,7.40
2018-09-19T22:53:46.329Z,7.28
2018-09-19T22:56:14.803Z,6.85
2018-09-19T22:58:43.287Z,8.53
2018-09-19T23:01:11.736Z,11.30
2018-09-19T23:03:40.991Z,8.65
2018-09-19T23:06:09.545Z,8.35
2018-09-19T23:08:38.067Z,8.25
2018-09-19T23:11:07.093Z,7.25
2018-09-19T23:13:35.590Z,6.20
2018-09-19T23:16:04.061Z,8.18
2018-09-19T23:18:33.100Z,7.83
2018-09-19T23:21:01.613Z,8.73
2018-09-19T23:23:31.804Z,10.65
2018-09-19T23:26:00.212Z,11.55
2018-09-19T23:28:28.613Z,7.75
2018-09-19T23:30:57.013Z,7.33
2018-09-19T23:33:25.653Z,7.67
2018-09-19T23:35:54.654Z,7.55
2018-09-19T23:38:23.067Z,6.33
2018-09-19T23:40:51.541Z,6.58
2018-09-19T23:43:20.593Z,6.17
2018-09-19T23:45:49.877Z,10.80
2018-09-19T23:48:18.433Z,9.58
2018-09-19T23:50:46.852Z,9.30
2018-09-19T23:53:15.384Z,7.75
2018-09-19T23:55:43.966Z,7.72
2018-09-19T23:58:12.369Z,8.08
